Time;durP1;ratioP1;P1;durP2;ratioP2;P2;SDS_P1;SDS_P2;PMS_P1;PMS_P2;Temp;Humidity;BMP_temperature;BMP_pressure;BME280_temperature;BME280_humidity;BME280_pressure;Samples;Min_cycle;Max_cycle;Signal;HPM_P1;HPM_P2
2022/04/08 00:00:14;;;;;;;3.97;1.93;;;9.40;99.90;;;;;;5063036;28;20564;-70
2022/04/08 00:02:41;;;;;;;5.57;1.90;;;9.40;99.90;;;;;;5071828;28;20184;-70
2022/04/08 00:05:07;;;;;;;6.23;1.60;;;9.40;99.90;;;;;;5070092;28;20938;-71
2022/04/08 00:07:33;;;;;;;3.63;1.47;;;9.40;99.90;;;;;;5064849;28;20790;-70
2022/04/08 00:09:58;;;;;;;5.07;1.90;;;9.40;99.90;;;;;;5071692;28;20434;-71
2022/04/08 00:12:24;;;;;;;3.93;1.77;;;9.30;99.90;;;;;;5070678;28;20231;-70
2022/04/08 00:14:49;;;;;;;6.50;1.50;;;9.30;99.90;;;;;;5067602;28;20178;-70
2022/04/08 00:17:15;;;;;;;4.93;2.00;;;9.40;99.90;;;;;;5059991;28;20263;-70
2022/04/08 00:19:41;;;;;;;4.70;2.30;;;9.40;99.90;;;;;;5066021;28;20169;-70
2022/04/08 00:22:06;;;;;;;3.90;2.50;;;9.40;99.90;;;;;;5068905;28;20230;-70
2022/04/08 00:24:32;;;;;;;2.80;1.40;;;9.40;99.90;;;;;;5066695;28;20181;-71
2022/04/08 00:26:57;;;;;;;1.87;1.50;;;9.40;99.90;;;;;;5061284;28;20556;-70
2022/04/08 00:29:23;;;;;;;3.50;1.40;;;9.30;99.90;;;;;;5063072;28;20207;-70
2022/04/08 00:31:50;;;;;;;7.77;1.67;;;9.30;99.90;;;;;;5060082;28;20181;-70
2022/04/08 00:34:16;;;;;;;5.00;1.90;;;9.30;99.90;;;;;;5065481;28;20177;-70
2022/04/08 00:36:41;;;;;;;5.83;2.77;;;9.30;99.90;;;;;;5056215;28;20462;-71
2022/04/08 00:39:11;;;;;;;6.53;2.10;;;9.30;99.90;;;;;;5062535;28;20438;-70
2022/04/08 00:41:37;;;;;;;7.33;2.03;;;9.30;99.90;;;;;;5063985;28;20184;-71
2022/04/08 00:44:03;;;;;;;5.63;2.50;;;9.20;99.90;;;;;;5069117;28;20434;-71
2022/04/08 00:46:29;;;;;;;5.40;2.40;;;9.30;99.90;;;;;;5064838;28;20216;-69
2022/04/08 00:48:54;;;;;;;3.80;1.30;;;9.20;99.90;;;;;;5060712;28;20949;-69
2022/04/08 00:51:21;;;;;;;5.20;1.70;;;9.20;99.90;;;;;;5064550;28;20177;-70
2022/04/08 00:53:47;;;;;;;3.83;1.50;;;9.20;99.90;;;;;;5066397;28;20165;-71
2022/04/08 00:56:13;;;;;;;7.27;1.50;;;9.20;99.90;;;;;;5066508;28;20509;-71
2022/04/08 00:58:39;;;;;;;6.13;2.13;;;9.10;99.90;;;;;;5059690;28;20467;-70
2022/04/08 01:01:04;;;;;;;5.13;1.80;;;9.10;99.90;;;;;;5058527;28;20558;-70
2022/04/08 01:03:30;;;;;;;3.63;1.57;;;9.10;99.90;;;;;;5070297;28;20172;-71
2022/04/08 01:05:57;;;;;;;8.90;1.43;;;9.10;99.90;;;;;;5062128;28;20672;-70
2022/04/08 01:08:22;;;;;;;5.03;2.10;;;9.10;99.90;;;;;;5066244;28;20244;-71
2022/04/08 01:10:49;;;;;;;6.03;1.37;;;9.10;99.90;;;;;;5054645;28;20464;-71
2022/04/08 01:13:14;;;;;;;3.87;2.00;;;9.10;99.90;;;;;;5071795;28;20235;-70
2022/04/08 01:15:40;;;;;;;7.13;1.97;;;9.10;99.90;;;;;;5063383;28;20427;-70
2022/04/08 01:18:05;;;;;;;5.23;1.43;;;9.10;99.90;;;;;;5066245;28;20688;-70
2022/04/08 01:20:32;;;;;;;5.03;2.30;;;9.00;99.90;;;;;;5067345;28;20193;-70
2022/04/08 01:22:57;;;;;;;7.43;2.27;;;9.00;99.90;;;;;;5065756;28;20450;-71
2022/04/08 01:25:23;;;;;;;3.27;1.47;;;9.00;99.90;;;;;;5066559;28;20443;-71
2022/04/08 01:27:48;;;;;;;3.17;1.80;;;9.00;99.90;;;;;;5062409;28;20204;-70
2022/04/08 01:30:16;;;;;;;3.33;1.40;;;9.00;99.90;;;;;;5059589;28;20178;-69
2022/04/08 01:32:42;;;;;;;5.13;1.30;;;9.00;99.90;;;;;;5069077;28;20259;-71
2022/04/08 01:35:08;;;;;;;18.87;3.03;;;8.90;99.90;;;;;;5063936;28;20463;-70
2022/04/08 01:37:33;;;;;;;2.33;1.50;;;8.90;99.90;;;;;;5066916;28;20512;-71
2022/04/08 01:39:59;;;;;;;3.53;1.37;;;8.90;99.90;;;;;;5068163;28;20180;-70
2022/04/08 01:42:25;;;;;;;5.50;2.10;;;8.90;99.90;;;;;;5058448;28;20260;-71
2022/04/08 01:44:52;;;;;;;4.63;1.33;;;8.90;99.90;;;;;;5058713;28;20459;-70
2022/04/08 01:47:17;;;;;;;4.13;1.67;;;8.90;99.90;;;;;;5061197;28;20276;-70
2022/04/08 01:49:43;;;;;;;2.50;1.60;;;8.90;99.90;;;;;;5067155;28;20463;-70
2022/04/08 01:52:08;;;;;;;4.90;1.30;;;8.80;99.90;;;;;;5063401;28;20654;-69
2022/04/08 01:54:34;;;;;;;4.07;1.67;;;8.80;99.90;;;;;;5061630;28;20185;-69
2022/04/08 01:57:00;;;;;;;1.00;0.90;;;8.80;99.90;;;;;;5063887;28;20219;-69
2022/04/08 01:59:25;;;;;;;2.57;1.50;;;8.80;99.90;;;;;;5060021;28;20181;-69
2022/04/08 02:01:51;;;;;;;2.57;1.30;;;8.70;99.90;;;;;;5057500;28;20220;-69
2022/04/08 02:04:16;;;;;;;2.73;1.50;;;8.70;99.90;;;;;;5060784;28;20677;-69
2022/04/08 02:06:42;;;;;;;3.70;1.30;;;8.70;99.90;;;;;;5065764;28;20204;-69
2022/04/08 02:09:08;;;;;;;1.60;1.50;;;8.70;99.90;;;;;;5062916;28;20204;-69
2022/04/08 02:11:35;;;;;;;7.03;1.80;;;8.70;99.90;;;;;;5067846;28;20470;-69
2022/04/08 02:14:01;;;;;;;3.37;1.30;;;8.70;99.90;;;;;;5066474;28;20427;-69
2022/04/08 02:16:26;;;;;;;2.93;1.50;;;8.60;99.90;;;;;;5065783;28;20461;-69
2022/04/08 02:18:52;;;;;;;4.53;1.40;;;8.60;99.90;;;;;;5059417;28;20192;-69
2022/04/08 02:21:19;;;;;;;2.50;1.43;;;8.50;99.90;;;;;;5062949;28;20184;-69
2022/04/08 02:23:46;;;;;;;5.63;2.00;;;8.50;99.90;;;;;;5063475;28;20180;-69
2022/04/08 02:26:13;;;;;;;3.77;1.67;;;8.50;99.90;;;;;;5062867;28;20508;-69
2022/04/08 02:28:39;;;;;;;3.77;1.50;;;8.40;99.90;;;;;;5061237;28;20458;-69
2022/04/08 02:31:05;;;;;;;3.97;1.90;;;8.40;99.90;;;;;;5052452;28;20930;-69
2022/04/08 02:33:31;;;;;;;2.87;1.53;;;8.40;99.90;;;;;;5056705;28;20180;-69
2022/04/08 02:35:57;;;;;;;3.63;1.60;;;8.30;99.90;;;;;;5064864;28;20455;-69
2022/04/08 02:38:22;;;;;;;3.90;1.50;;;8.30;99.90;;;;;;5060082;28;20500;-69
2022/04/08 02:40:48;;;;;;;6.43;2.23;;;8.30;99.90;;;;;;5062917;28;20621;-69
2022/04/08 02:43:13;;;;;;;4.67;1.77;;;8.20;99.90;;;;;;5071770;28;20271;-69
2022/04/08 02:45:39;;;;;;;3.70;1.40;;;8.20;99.90;;;;;;5066916;28;20182;-69
2022/04/08 02:48:05;;;;;;;1.57;1.20;;;8.20;99.90;;;;;;5060189;28;20695;-69
2022/04/08 02:50:30;;;;;;;3.53;1.80;;;8.20;99.90;;;;;;5068373;28;20258;-69
2022/04/08 02:52:56;;;;;;;6.20;1.60;;;8.20;99.90;;;;;;5063655;28;20256;-69
2022/04/08 02:55:21;;;;;;;4.43;1.70;;;8.10;99.90;;;;;;5066325;28;20173;-68
2022/04/08 02:57:48;;;;;;;7.37;1.50;;;8.10;99.90;;;;;;5058251;28;20213;-68
2022/04/08 03:00:15;;;;;;;4.27;1.60;;;8.10;99.90;;;;;;5065326;28;20557;-68
2022/04/08 03:02:41;;;;;;;6.60;2.70;;;8.20;99.90;;;;;;5059997;28;20433;-69
2022/04/08 03:05:07;;;;;;;8.57;1.73;;;8.20;99.90;;;;;;5062501;28;20436;-69
2022/04/08 03:07:33;;;;;;;2.20;1.67;;;8.20;99.90;;;;;;5072082;28;20465;-69
2022/04/08 03:09:59;;;;;;;11.27;1.83;;;8.30;99.90;;;;;;5065622;28;20439;-69
2022/04/08 03:12:24;;;;;;;2.37;1.10;;;8.30;99.90;;;;;;5067684;28;20668;-69
2022/04/08 03:14:50;;;;;;;2.63;1.50;;;8.30;99.90;;;;;;5059195;28;20199;-68
2022/04/08 03:17:15;;;;;;;3.30;2.70;;;8.20;99.90;;;;;;5064404;28;20564;-69
2022/04/08 03:19:41;;;;;;;4.77;1.77;;;8.20;99.90;;;;;;5061494;28;20213;-69
2022/04/08 03:22:06;;;;;;;5.77;1.50;;;8.20;99.90;;;;;;5066538;28;20280;-69
2022/04/08 03:24:32;;;;;;;5.07;2.10;;;8.20;99.90;;;;;;5069758;28;20208;-69
2022/04/08 03:26:58;;;;;;;2.10;1.37;;;8.10;99.90;;;;;;5066934;28;20216;-69
2022/04/08 03:29:23;;;;;;;2.77;1.33;;;8.10;99.90;;;;;;5063335;28;20200;-68
2022/04/08 03:31:49;;;;;;;5.43;1.73;;;8.10;99.90;;;;;;5062425;28;20181;-69
2022/04/08 03:34:14;;;;;;;4.67;2.20;;;8.00;99.90;;;;;;5072515;28;20173;-69
2022/04/08 03:36:40;;;;;;;5.20;2.13;;;8.10;99.90;;;;;;5061231;28;20192;-69
2022/04/08 03:39:05;;;;;;;11.83;1.90;;;8.10;99.90;;;;;;5064967;28;20173;-69
2022/04/08 03:41:31;;;;;;;3.40;1.33;;;8.10;99.90;;;;;;5068105;28;20177;-68
2022/04/08 03:43:56;;;;;;;6.23;1.70;;;8.10;99.90;;;;;;5070372;28;20566;-68
2022/04/08 03:46:22;;;;;;;2.73;1.50;;;8.10;99.90;;;;;;5064981;28;20206;-68
2022/04/08 03:48:47;;;;;;;4.50;2.00;;;8.10;99.90;;;;;;5065262;28;20213;-69
2022/04/08 03:51:13;;;;;;;4.80;1.87;;;8.10;99.90;;;;;;5064305;28;20188;-69
2022/04/08 03:53:38;;;;;;;4.30;2.00;;;8.10;99.90;;;;;;5063399;28;20562;-69
2022/04/08 03:56:05;;;;;;;6.57;2.23;;;8.10;99.90;;;;;;5060647;28;20288;-69
2022/04/08 03:58:31;;;;;;;5.03;1.53;;;8.00;99.90;;;;;;5068025;28;20174;-69
2022/04/08 04:00:56;;;;;;;3.60;1.50;;;8.00;99.90;;;;;;5063639;28;20601;-68
2022/04/08 04:03:22;;;;;;;6.93;1.87;;;8.00;99.90;;;;;;5067879;28;20187;-69
2022/04/08 04:05:47;;;;;;;1.93;1.50;;;8.00;99.90;;;;;;5063741;28;20212;-69
2022/04/08 04:08:18;;;;;;;8.97;1.77;;;8.00;99.90;;;;;;5065324;28;20573;-69
2022/04/08 04:10:47;;;;;;;5.53;2.27;;;8.10;99.90;;;;;;5068231;28;20173;-68
2022/04/08 04:13:13;;;;;;;4.60;1.60;;;8.00;99.90;;;;;;5066051;28;20439;-69
2022/04/08 04:15:38;;;;;;;6.03;1.73;;;8.00;99.90;;;;;;5067363;28;20431;-68
2022/04/08 04:18:04;;;;;;;2.77;1.57;;;8.00;99.90;;;;;;5065331;28;20197;-69
2022/04/08 04:20:30;;;;;;;4.37;1.50;;;8.00;99.90;;;;;;5063163;28;20177;-69
2022/04/08 04:22:56;;;;;;;4.10;1.57;;;8.00;99.90;;;;;;5068735;28;20942;-69
2022/04/08 04:25:21;;;;;;;9.80;2.43;;;8.00;99.90;;;;;;5063913;28;20469;-69
2022/04/08 04:27:47;;;;;;;3.07;1.20;;;8.00;99.90;;;;;;5066042;28;20699;-68
2022/04/08 04:30:13;;;;;;;5.40;2.43;;;7.90;99.90;;;;;;5062475;28;20185;-69
2022/04/08 04:32:38;;;;;;;4.77;1.57;;;7.90;99.90;;;;;;5070097;28;20184;-69
2022/04/08 04:35:06;;;;;;;4.40;1.40;;;7.90;99.90;;;;;;5060033;28;20250;-69
2022/04/08 04:37:36;;;;;;;3.60;1.97;;;7.90;99.90;;;;;;5065227;28;20653;-69
2022/04/08 04:40:05;;;;;;;7.23;1.47;;;7.90;99.90;;;;;;5058602;28;20431;-69
2022/04/08 04:42:31;;;;;;;1.97;1.57;;;7.90;99.90;;;;;;5067384;28;20492;-69
2022/04/08 04:44:56;;;;;;;5.00;3.20;;;7.90;99.90;;;;;;5069407;28;20431;-68
2022/04/08 04:47:22;;;;;;;6.80;2.03;;;7.90;99.90;;;;;;5065632;28;20209;-68
2022/04/08 04:49:48;;;;;;;6.40;1.83;;;7.90;99.90;;;;;;5066881;28;20208;-69
2022/04/08 04:52:14;;;;;;;3.93;1.33;;;8.00;99.90;;;;;;5060027;28;20667;-68
2022/04/08 04:54:41;;;;;;;8.43;2.10;;;8.00;99.90;;;;;;5060127;28;20180;-68
2022/04/08 04:57:07;;;;;;;3.87;2.10;;;8.00;99.90;;;;;;5066841;28;20265;-68
2022/04/08 04:59:33;;;;;;;5.87;1.43;;;8.00;99.90;;;;;;5055452;28;20444;-68
2022/04/08 05:01:58;;;;;;;2.10;1.20;;;8.10;99.90;;;;;;5066078;28;20451;-68
2022/04/08 05:04:24;;;;;;;4.30;2.07;;;8.10;99.90;;;;;;5069211;28;20454;-69
2022/04/08 05:06:49;;;;;;;3.40;1.67;;;8.10;99.90;;;;;;5070778;28;20287;-69
2022/04/08 05:09:15;;;;;;;4.50;1.40;;;8.10;99.90;;;;;;5069026;28;20231;-68
2022/04/08 05:11:40;;;;;;;4.03;1.70;;;8.10;99.90;;;;;;5069850;28;20181;-68
2022/04/08 05:14:06;;;;;;;6.30;2.00;;;8.20;99.90;;;;;;5070563;28;20184;-69
2022/04/08 05:16:31;;;;;;;3.63;1.67;;;8.10;99.90;;;;;;5069873;28;20276;-69
2022/04/08 05:18:57;;;;;;;4.10;1.30;;;8.10;99.90;;;;;;5070108;28;20180;-68
2022/04/08 05:21:23;;;;;;;4.97;1.60;;;8.20;99.90;;;;;;5068976;28;20197;-68
2022/04/08 05:23:48;;;;;;;3.73;1.83;;;8.20;99.90;;;;;;5065618;28;20185;-68
2022/04/08 05:26:15;;;;;;;5.60;1.90;;;8.20;99.90;;;;;;5064384;28;20891;-69
2022/04/08 05:28:41;;;;;;;3.57;2.10;;;8.20;99.90;;;;;;5067907;28;20228;-69
2022/04/08 05:31:06;;;;;;;3.93;1.90;;;8.30;99.90;;;;;;5069757;28;20466;-69
2022/04/08 05:33:32;;;;;;;6.33;2.10;;;8.30;99.90;;;;;;5065779;28;20188;-68
2022/04/08 05:35:57;;;;;;;8.33;2.27;;;8.40;99.90;;;;;;5062748;28;20212;-68
2022/04/08 05:38:23;;;;;;;4.40;1.03;;;8.40;99.90;;;;;;5059339;28;20181;-68
2022/04/08 05:40:49;;;;;;;6.60;2.47;;;8.50;99.90;;;;;;5070121;28;20188;-68
2022/04/08 05:43:15;;;;;;;3.70;1.73;;;8.50;99.90;;;;;;5065184;28;20264;-68
2022/04/08 05:45:41;;;;;;;1.33;1.23;;;8.50;99.90;;;;;;5069401;28;20447;-69
2022/04/08 05:48:07;;;;;;;6.47;2.83;;;8.60;99.90;;;;;;5069129;28;20468;-68
2022/04/08 05:50:33;;;;;;;2.20;2.00;;;8.60;99.90;;;;;;5068385;28;20568;-69
2022/04/08 05:52:59;;;;;;;4.33;1.90;;;8.60;99.90;;;;;;5066569;28;20488;-68
2022/04/08 05:55:25;;;;;;;6.30;2.40;;;8.70;99.90;;;;;;5062324;28;20427;-69
2022/04/08 05:57:53;;;;;;;4.00;1.67;;;8.70;99.90;;;;;;5062175;28;20215;-68
2022/04/08 06:00:20;;;;;;;5.90;2.00;;;8.70;99.90;;;;;;5066070;28;20174;-68
2022/04/08 06:02:47;;;;;;;3.57;1.87;;;8.80;99.90;;;;;;5070315;28;20443;-68
2022/04/08 06:05:20;;;;;;;6.60;1.90;;;8.80;99.90;;;;;;5061418;28;20431;-68
2022/04/08 06:07:51;;;;;;;4.40;2.10;;;8.80;99.90;;;;;;5057678;28;20458;-69
2022/04/08 06:10:22;;;;;;;8.67;1.90;;;8.80;99.90;;;;;;5062102;28;20434;-68
2022/04/08 06:12:48;;;;;;;5.00;1.80;;;8.60;99.90;;;;;;5058469;28;20474;-69
2022/04/08 06:15:14;;;;;;;5.80;2.50;;;8.50;99.90;;;;;;5066080;28;20914;-68
2022/04/08 06:17:40;;;;;;;4.07;1.90;;;8.30;99.90;;;;;;5061625;28;20954;-68
2022/04/08 06:20:09;;;;;;;1.73;1.30;;;8.10;99.90;;;;;;5069559;28;20518;-68
2022/04/08 06:22:37;;;;;;;4.57;2.80;;;7.90;99.90;;;;;;5071943;28;20543;-68
2022/04/08 06:25:03;;;;;;;1.90;1.50;;;7.80;99.90;;;;;;5062558;28;20917;-68
2022/04/08 06:27:29;;;;;;;4.43;1.47;;;7.70;99.90;;;;;;5066976;28;20496;-68
2022/04/08 06:29:54;;;;;;;3.90;1.80;;;7.70;99.90;;;;;;5065988;28;20498;-68
2022/04/08 06:32:20;;;;;;;7.50;3.10;;;7.70;99.90;;;;;;5066779;28;20249;-68
2022/04/08 06:34:47;;;;;;;6.47;2.37;;;7.70;99.90;;;;;;5066510;28;20179;-67
2022/04/08 06:37:13;;;;;;;2.30;1.67;;;7.70;99.90;;;;;;5067147;28;20193;-68
2022/04/08 06:39:39;;;;;;;3.27;2.30;;;7.70;99.90;;;;;;5062169;28;20593;-67
2022/04/08 06:42:04;;;;;;;4.73;1.57;;;7.60;99.90;;;;;;5068767;28;20954;-68
2022/04/08 06:44:29;;;;;;;5.60;1.63;;;7.50;99.90;;;;;;5063957;28;20174;-68
2022/04/08 06:46:55;;;;;;;7.47;1.60;;;7.30;99.90;;;;;;5059732;28;20303;-67
2022/04/08 06:49:20;;;;;;;5.43;1.80;;;7.30;99.90;;;;;;5044861;28;20753;-67
2022/04/08 06:51:46;;;;;;;2.60;1.37;;;7.20;99.90;;;;;;5049401;28;20177;-67
2022/04/08 06:54:12;;;;;;;5.20;2.73;;;7.20;99.90;;;;;;5067223;28;20180;-66
2022/04/08 06:56:37;;;;;;;4.90;1.97;;;7.20;99.90;;;;;;5067662;28;20208;-68
2022/04/08 06:59:04;;;;;;;2.73;1.37;;;7.10;99.90;;;;;;5065608;28;20202;-67
2022/04/08 07:01:30;;;;;;;2.27;1.30;;;7.10;99.90;;;;;;5072096;28;20522;-67
2022/04/08 07:03:56;;;;;;;5.13;2.20;;;7.00;99.90;;;;;;5068816;28;20180;-67
2022/04/08 07:06:21;;;;;;;5.33;1.97;;;6.90;99.90;;;;;;5067043;28;21037;-67
2022/04/08 07:08:47;;;;;;;8.50;2.80;;;6.90;99.90;;;;;;5066666;28;20554;-67
2022/04/08 07:11:14;;;;;;;4.47;3.07;;;6.90;99.90;;;;;;5070351;28;20181;-67
2022/04/08 07:13:41;;;;;;;3.10;2.77;;;6.90;99.90;;;;;;5068930;28;20173;-67
2022/04/08 07:16:10;;;;;;;4.70;1.90;;;6.90;99.90;;;;;;5067041;28;20508;-67
2022/04/08 07:18:35;;;;;;;2.93;1.27;;;6.90;99.90;;;;;;5064681;28;20431;-68
2022/04/08 07:21:01;;;;;;;5.20;1.93;;;7.00;99.90;;;;;;5066262;28;20445;-67
2022/04/08 07:23:27;;;;;;;2.67;1.40;;;7.00;99.90;;;;;;5063068;28;20178;-67
2022/04/08 07:25:52;;;;;;;5.30;1.30;;;7.00;99.90;;;;;;5061845;28;20455;-67
2022/04/08 07:28:18;;;;;;;3.00;2.10;;;7.00;99.90;;;;;;5062240;28;20514;-67
2022/04/08 07:30:43;;;;;;;5.40;2.20;;;7.00;99.90;;;;;;5062575;28;20189;-67
2022/04/08 07:33:09;;;;;;;5.03;2.00;;;6.90;99.90;;;;;;5059376;28;20231;-68
2022/04/08 07:35:37;;;;;;;3.40;1.43;;;7.00;99.90;;;;;;5066302;28;20176;-68
2022/04/08 07:38:03;;;;;;;1.40;1.30;;;7.00;99.90;;;;;;5065038;28;20264;-67
2022/04/08 07:40:29;;;;;;;2.30;1.63;;;7.00;99.90;;;;;;5067533;28;20435;-67
2022/04/08 07:42:54;;;;;;;1.43;1.03;;;7.00;99.90;;;;;;5066065;28;20461;-67
2022/04/08 07:45:24;;;;;;;6.10;4.20;;;7.10;99.90;;;;;;5065640;28;20196;-68
2022/04/08 07:47:49;;;;;;;6.87;2.57;;;7.10;99.90;;;;;;5058186;28;20293;-68
2022/04/08 07:50:15;;;;;;;5.50;1.70;;;7.00;99.90;;;;;;5061001;28;20522;-69
2022/04/08 07:52:42;;;;;;;2.13;1.50;;;6.90;99.90;;;;;;5065400;28;20177;-68
2022/04/08 07:55:09;;;;;;;6.07;4.13;;;6.90;99.90;;;;;;5066858;28;20176;-68
2022/04/08 07:57:46;;;;;;;3.20;2.30;;;7.00;99.90;;;;;;5065087;28;20475;-70
2022/04/08 08:00:19;;;;;;;2.00;1.20;;;7.10;99.90;;;;;;5063021;28;20439;-69
2022/04/08 08:02:45;;;;;;;2.70;2.10;;;7.30;99.90;;;;;;5064431;28;20443;-69
2022/04/08 08:05:12;;;;;;;5.43;2.10;;;7.40;99.90;;;;;;5062839;28;20434;-70
2022/04/08 08:07:43;;;;;;;2.47;1.30;;;7.50;99.90;;;;;;5063984;28;20820;-69
2022/04/08 08:10:09;;;;;;;3.57;1.70;;;7.40;99.90;;;;;;5064756;28;20423;-69
2022/04/08 08:12:34;;;;;;;4.87;1.70;;;7.50;99.90;;;;;;5071359;28;20430;-69
2022/04/08 08:15:00;;;;;;;1.83;1.37;;;7.50;99.90;;;;;;5068166;28;20238;-68
2022/04/08 08:17:26;;;;;;;3.87;1.40;;;7.50;99.90;;;;;;5061889;28;20220;-70
2022/04/08 08:19:51;;;;;;;1.37;1.00;;;7.60;99.90;;;;;;5066114;28;20185;-69
2022/04/08 08:22:17;;;;;;;2.67;1.43;;;7.60;99.90;;;;;;5063516;28;20191;-70
2022/04/08 08:24:42;;;;;;;4.57;1.20;;;7.80;99.90;;;;;;5067923;28;20533;-69
2022/04/08 08:27:08;;;;;;;1.37;1.27;;;7.90;99.90;;;;;;5066910;28;20232;-70
2022/04/08 08:29:33;;;;;;;1.13;0.80;;;7.90;99.90;;;;;;5066145;28;20185;-70
2022/04/08 08:31:59;;;;;;;1.63;1.00;;;7.80;99.90;;;;;;5056984;28;20904;-68
2022/04/08 08:34:24;;;;;;;1.50;1.23;;;7.60;99.90;;;;;;5064285;28;20659;-70
2022/04/08 08:36:51;;;;;;;1.40;1.30;;;7.60;99.90;;;;;;5066435;28;20288;-69
2022/04/08 08:39:17;;;;;;;1.97;1.13;;;7.50;99.90;;;;;;5061677;28;20570;-70
2022/04/08 08:41:43;;;;;;;1.03;0.93;;;7.50;99.90;;;;;;5063705;28;20939;-69
2022/04/08 08:44:09;;;;;;;2.30;1.47;;;7.50;99.90;;;;;;5062677;28;20542;-69
2022/04/08 08:46:35;;;;;;;2.10;1.30;;;7.60;99.90;;;;;;5061524;28;21005;-68
2022/04/08 08:49:03;;;;;;;3.10;1.43;;;7.60;99.90;;;;;;5060265;28;20572;-69
2022/04/08 08:51:34;;;;;;;1.77;1.10;;;7.80;99.90;;;;;;5065157;28;20433;-68
2022/04/08 08:54:00;;;;;;;1.50;1.07;;;7.80;99.90;;;;;;5060344;28;20435;-70
2022/04/08 08:56:26;;;;;;;1.97;1.50;;;7.80;99.90;;;;;;5064148;28;20467;-69
2022/04/08 08:58:51;;;;;;;1.40;1.30;;;7.80;99.90;;;;;;5069395;28;20216;-68
2022/04/08 09:01:17;;;;;;;1.30;0.93;;;7.90;99.90;;;;;;5061790;28;20180;-70
2022/04/08 09:03:44;;;;;;;4.17;1.57;;;7.80;99.90;;;;;;5061877;28;20603;-70
2022/04/08 09:06:10;;;;;;;6.73;1.97;;;7.80;99.90;;;;;;5059693;28;20246;-69
2022/04/08 09:08:38;;;;;;;2.27;1.10;;;7.70;99.90;;;;;;5064047;28;20459;-70
2022/04/08 09:11:04;;;;;;;2.90;1.80;;;7.70;99.90;;;;;;5065389;28;20176;-69
2022/04/08 09:13:30;;;;;;;3.37;2.60;;;7.70;99.90;;;;;;5060614;28;21009;-70
2022/04/08 09:16:00;;;;;;;1.23;1.00;;;7.70;99.90;;;;;;5062299;28;20541;-68
2022/04/08 09:18:30;;;;;;;1.13;0.97;;;7.70;99.90;;;;;;5061276;28;20196;-69
2022/04/08 09:20:57;;;;;;;1.77;1.30;;;7.70;99.90;;;;;;5064165;28;20902;-70
2022/04/08 09:23:23;;;;;;;4.37;2.90;;;7.70;99.90;;;;;;5067997;28;20439;-71
2022/04/08 09:25:57;;;;;;;4.90;2.00;;;7.70;99.90;;;;;;5059711;28;20473;-69
2022/04/08 09:28:23;;;;;;;1.40;1.30;;;7.70;99.90;;;;;;5062843;28;20196;-69
2022/04/08 09:30:52;;;;;;;2.90;1.63;;;7.80;99.90;;;;;;5064588;28;20824;-70
2022/04/08 09:33:20;;;;;;;1.47;1.37;;;7.70;99.90;;;;;;5066278;28;20176;-69
2022/04/08 09:35:47;;;;;;;1.60;1.40;;;7.70;99.90;;;;;;5065876;28;20492;-68
2022/04/08 09:38:18;;;;;;;1.30;1.17;;;7.70;99.90;;;;;;5066242;28;20842;-70
2022/04/08 09:40:44;;;;;;;0.90;0.90;;;7.80;99.90;;;;;;5061732;28;20431;-70
2022/04/08 09:43:10;;;;;;;0.77;0.77;;;7.70;99.90;;;;;;5059915;28;20440;-69
2022/04/08 09:45:38;;;;;;;1.10;1.00;;;7.70;99.90;;;;;;5067138;28;20652;-69
2022/04/08 09:48:05;;;;;;;1.10;1.00;;;7.70;99.90;;;;;;5061350;28;20205;-69
2022/04/08 09:50:31;;;;;;;2.13;1.27;;;7.70;99.90;;;;;;5070417;28;20522;-70
2022/04/08 09:52:57;;;;;;;1.93;0.97;;;7.70;99.90;;;;;;5071993;28;20426;-69
2022/04/08 09:55:23;;;;;;;1.33;0.87;;;7.80;99.90;;;;;;5062728;28;20938;-68
2022/04/08 09:57:55;;;;;;;1.43;1.17;;;7.80;99.90;;;;;;5067270;28;20312;-69
2022/04/08 10:00:20;;;;;;;11.50;9.47;;;7.80;99.90;;;;;;5072126;28;20435;-69
2022/04/08 10:02:49;;;;;;;4.87;2.80;;;7.90;99.90;;;;;;5069039;28;20441;-70
2022/04/08 10:05:15;;;;;;;1.30;1.10;;;8.10;99.90;;;;;;5065906;28;20205;-69
2022/04/08 10:07:44;;;;;;;1.30;1.10;;;8.20;99.90;;;;;;5071428;28;20482;-67
2022/04/08 10:10:20;;;;;;;4.13;1.30;;;8.30;99.90;;;;;;5070531;28;20192;-68
2022/04/08 10:13:03;;;;;;;4.90;1.30;;;8.40;99.90;;;;;;5062593;28;20431;-67
2022/04/08 10:15:37;;;;;;;2.67;1.83;;;8.50;99.90;;;;;;5065907;28;20923;-67
2022/04/08 10:18:04;;;;;;;2.50;1.70;;;8.60;99.90;;;;;;5064250;28;20458;-66
2022/04/08 10:20:31;;;;;;;3.60;2.53;;;8.50;99.90;;;;;;5066672;28;20439;-67
2022/04/08 10:23:17;;;;;;;7.10;5.77;;;8.40;99.90;;;;;;5070281;28;20437;-66
2022/04/08 10:25:47;;;;;;;1.97;1.80;;;8.30;99.90;;;;;;5060994;28;20447;-69
2022/04/08 10:28:12;;;;;;;3.23;2.40;;;8.20;99.90;;;;;;5068292;28;20466;-69
2022/04/08 10:30:49;;;;;;;3.97;2.00;;;8.30;99.90;;;;;;5069315;28;20492;-70
2022/04/08 10:33:26;;;;;;;3.90;1.97;;;8.20;99.90;;;;;;5068036;28;20176;-69
2022/04/08 10:35:55;;;;;;;7.97;5.10;;;8.10;99.90;;;;;;5063509;28;20459;-68
2022/04/08 10:38:21;;;;;;;16.47;9.43;;;7.90;99.90;;;;;;5071155;28;20444;-68
2022/04/08 10:40:56;;;;;;;10.77;5.70;;;7.90;99.90;;;;;;5071024;28;20449;-69
2022/04/08 10:43:22;;;;;;;124.53;48.93;;;8.10;99.90;;;;;;5068212;28;20237;-67
2022/04/08 10:45:56;;;;;;;8.13;4.50;;;8.10;99.90;;;;;;5068517;28;20509;-71
2022/04/08 10:48:31;;;;;;;21.87;10.27;;;8.30;99.90;;;;;;5066822;28;20507;-72
2022/04/08 10:51:13;;;;;;;17.57;9.40;;;8.50;99.90;;;;;;5069857;28;20446;-71
2022/04/08 10:53:41;;;;;;;17.37;6.63;;;8.50;99.90;;;;;;5064135;28;20439;-70
2022/04/08 10:56:13;;;;;;;6.30;2.90;;;8.60;99.90;;;;;;5066278;28;20482;-70
2022/04/08 10:58:43;;;;;;;2.53;1.73;;;8.50;99.90;;;;;;5071238;28;20449;-69
2022/04/08 11:01:24;;;;;;;9.93;4.30;;;8.50;99.90;;;;;;5070577;28;20434;-70
2022/04/08 11:04:00;;;;;;;8.80;3.27;;;8.80;99.90;;;;;;5060837;28;20436;-70
2022/04/08 11:06:33;;;;;;;5.70;1.83;;;8.90;99.90;;;;;;5068685;28;20458;-69
2022/04/08 11:09:12;;;;;;;1.33;1.23;;;9.00;99.90;;;;;;5071055;28;20462;-69
2022/04/08 11:11:43;;;;;;;2.40;2.23;;;8.80;99.90;;;;;;5070704;28;20450;-69
2022/04/08 11:14:10;;;;;;;9.53;4.60;;;8.70;99.90;;;;;;5069856;28;20518;-68
2022/04/08 11:16:37;;;;;;;2.40;2.20;;;8.50;99.90;;;;;;5066273;28;21005;-68
2022/04/08 11:19:07;;;;;;;3.43;3.13;;;8.40;99.90;;;;;;5064528;28;20439;-69
2022/04/08 11:21:38;;;;;;;2.60;2.40;;;8.50;99.90;;;;;;5080768;28;20526;-69
2022/04/08 11:24:06;;;;;;;2.63;2.33;;;8.40;99.90;;;;;;5068615;28;20514;-69
2022/04/08 11:26:58;;;;;;;6.60;2.00;;;8.40;99.90;;;;;;5068157;28;20478;-68
2022/04/08 11:29:25;;;;;;;2.77;2.20;;;8.20;99.90;;;;;;5055185;28;20475;-67
2022/04/08 11:31:52;;;;;;;2.10;1.90;;;8.20;99.90;;;;;;5069448;28;20446;-68
2022/04/08 11:34:18;;;;;;;4.10;2.40;;;8.10;99.90;;;;;;5066123;28;20517;-68
2022/04/08 11:36:44;;;;;;;2.23;2.00;;;8.20;99.90;;;;;;5068298;28;20566;-68
2022/04/08 11:39:18;;;;;;;1.40;1.30;;;8.20;99.90;;;;;;5066311;28;20196;-66
2022/04/08 11:41:54;;;;;;;2.60;2.40;;;8.20;99.90;;;;;;5061769;28;20915;-68
2022/04/08 11:44:20;;;;;;;2.93;2.60;;;8.20;99.90;;;;;;5060409;28;20435;-66
2022/04/08 11:46:46;;;;;;;2.00;1.80;;;8.30;99.90;;;;;;5066045;28;20497;-67
2022/04/08 11:49:12;;;;;;;1.20;1.10;;;8.20;99.90;;;;;;5067813;28;20546;-68
2022/04/08 11:51:38;;;;;;;2.20;2.00;;;8.20;99.90;;;;;;5065198;28;20272;-69
2022/04/08 11:54:04;;;;;;;2.43;1.30;;;8.20;99.90;;;;;;5052384;28;20481;-68
2022/04/08 11:56:30;;;;;;;1.93;1.40;;;8.20;99.90;;;;;;5057674;28;20599;-68
2022/04/08 11:59:04;;;;;;;2.27;2.07;;;8.20;99.90;;;;;;5061767;28;20447;-68
2022/04/08 12:01:34;;;;;;;5.60;4.20;;;8.30;99.90;;;;;;5075874;28;20443;-67
2022/04/08 12:04:05;;;;;;;4.03;1.70;;;8.40;99.90;;;;;;5058485;28;20878;-68
2022/04/08 12:06:45;;;;;;;1.90;1.80;;;8.40;99.90;;;;;;5066262;28;20469;-68
2022/04/08 12:09:12;;;;;;;1.93;1.83;;;8.30;99.90;;;;;;5064718;28;20843;-69
2022/04/08 12:11:39;;;;;;;3.33;1.93;;;8.40;99.90;;;;;;5061671;28;20445;-66
2022/04/08 12:14:08;;;;;;;2.90;2.40;;;8.40;99.90;;;;;;5060857;28;20873;-68
2022/04/08 12:16:34;;;;;;;2.93;2.00;;;8.50;99.90;;;;;;5058606;28;20464;-67
2022/04/08 12:19:02;;;;;;;2.53;2.13;;;8.50;99.90;;;;;;5065598;28;20453;-67
2022/04/08 12:21:29;;;;;;;3.37;2.30;;;8.50;99.90;;;;;;5061805;28;21072;-69
2022/04/08 12:23:56;;;;;;;3.33;2.70;;;8.70;99.90;;;;;;5064019;28;20969;-68
2022/04/08 12:26:30;;;;;;;2.63;2.40;;;8.60;99.90;;;;;;5061899;28;20545;-69
2022/04/08 12:29:08;;;;;;;2.87;2.67;;;8.50;99.90;;;;;;5059574;28;20471;-68
2022/04/08 12:31:45;;;;;;;3.73;2.17;;;8.40;99.90;;;;;;5062045;28;20469;-68
2022/04/08 12:34:10;;;;;;;3.20;2.23;;;8.30;99.90;;;;;;5055649;28;20496;-68
2022/04/08 12:36:36;;;;;;;3.47;2.67;;;8.20;99.90;;;;;;5064724;28;20467;-68
2022/04/08 12:39:01;;;;;;;5.10;2.93;;;8.30;99.90;;;;;;5065289;28;20295;-69
2022/04/08 12:41:27;;;;;;;4.30;3.10;;;8.20;99.90;;;;;;5065687;28;20701;-68
2022/04/08 12:43:54;;;;;;;3.47;2.80;;;8.20;99.90;;;;;;5064483;28;20208;-68
2022/04/08 12:46:21;;;;;;;3.23;2.83;;;8.20;99.90;;;;;;5061083;28;20201;-68
2022/04/08 12:48:46;;;;;;;7.43;6.50;;;8.20;99.90;;;;;;5063968;28;20615;-68
2022/04/08 12:51:12;;;;;;;4.30;3.13;;;8.20;99.90;;;;;;5062310;28;20525;-68
2022/04/08 12:53:37;;;;;;;2.97;2.63;;;8.20;99.90;;;;;;5061008;28;20911;-68
2022/04/08 12:56:04;;;;;;;2.73;2.53;;;8.20;99.90;;;;;;5059147;28;20216;-66